Time;durP1;ratioP1;P1;durP2;ratioP2;P2;SDS_P1;SDS_P2;PMS_P1;PMS_P2;Temp;Humidity;BMP_temperature;BMP_pressure;BME280_temperature;BME280_humidity;BME280_pressure;Samples;Min_cycle;Max_cycle;Signal;HPM_P1;HPM_P2
2023/08/18 00:01:43;;;;;;;3.63;2.28;;;16.40;99.90;;;;;;5034398;28;20048;-88
2023/08/18 00:04:08;;;;;;;3.03;2.13;;;16.40;99.90;;;;;;5034912;28;20041;-90
2023/08/18 00:06:34;;;;;;;3.72;2.50;;;16.40;99.90;;;;;;5055168;28;20507;-88
2023/08/18 00:09:04;;;;;;;2.72;2.38;;;16.40;99.90;;;;;;5074273;28;20053;-88
2023/08/18 00:11:30;;;;;;;5.03;2.30;;;16.40;99.90;;;;;;5055580;28;20040;-88
2023/08/18 00:13:56;;;;;;;5.60;2.20;;;16.40;99.90;;;;;;5070161;28;20059;-87
2023/08/18 00:16:22;;;;;;;4.50;3.15;;;16.40;99.90;;;;;;5047401;28;20045;-89
2023/08/18 00:18:50;;;;;;;2.80;2.22;;;16.40;99.90;;;;;;5046879;28;20045;-88
2023/08/18 00:21:15;;;;;;;3.60;2.47;;;16.40;99.90;;;;;;5053329;28;20081;-88
2023/08/18 00:23:42;;;;;;;4.93;2.50;;;16.40;99.90;;;;;;5037976;28;20037;-86
2023/08/18 00:26:10;;;;;;;3.25;2.38;;;16.40;99.90;;;;;;5038561;28;20029;-88
2023/08/18 00:28:35;;;;;;;5.75;2.58;;;16.40;99.90;;;;;;5070356;28;20033;-88
2023/08/18 00:31:02;;;;;;;4.00;2.53;;;16.30;99.90;;;;;;5036938;28;20148;-87
2023/08/18 00:33:27;;;;;;;2.58;2.28;;;16.30;99.90;;;;;;5034789;28;20547;-87
2023/08/18 00:35:53;;;;;;;3.63;2.67;;;16.30;99.90;;;;;;5032217;28;20132;-87
2023/08/18 00:38:19;;;;;;;3.20;2.28;;;16.30;99.90;;;;;;5036795;28;20116;-87
2023/08/18 00:40:45;;;;;;;4.82;2.63;;;16.30;99.90;;;;;;5035573;28;20075;-87
2023/08/18 00:43:13;;;;;;;4.20;2.80;;;16.30;99.90;;;;;;5012721;28;20045;-88
2023/08/18 00:45:39;;;;;;;4.50;2.80;;;16.40;99.90;;;;;;5000656;28;20481;-87
2023/08/18 00:48:05;;;;;;;2.83;2.40;;;16.40;99.90;;;;;;5016576;28;20055;-87
2023/08/18 00:50:31;;;;;;;3.97;2.42;;;16.40;99.90;;;;;;5030481;28;20047;-87
2023/08/18 00:52:59;;;;;;;4.00;2.63;;;16.40;99.90;;;;;;5053062;28;20439;-88
2023/08/18 00:55:29;;;;;;;3.58;2.63;;;16.40;99.90;;;;;;5036354;28;20432;-87
2023/08/18 00:57:58;;;;;;;3.90;2.88;;;16.40;99.90;;;;;;5051184;28;20037;-88
2023/08/18 01:00:24;;;;;;;4.65;2.80;;;16.40;99.90;;;;;;5062988;28;20476;-88
2023/08/18 01:02:50;;;;;;;6.05;2.88;;;16.40;99.90;;;;;;5071771;28;20094;-88
2023/08/18 01:05:19;;;;;;;5.20;2.63;;;16.40;99.90;;;;;;5037309;28;20028;-87
2023/08/18 01:07:45;;;;;;;4.93;3.00;;;16.40;99.90;;;;;;5019561;28;20057;-87
2023/08/18 01:10:12;;;;;;;3.92;2.55;;;16.40;99.90;;;;;;5053211;28;20041;-87
2023/08/18 01:13:20;;;;;;;3.20;2.50;;;16.40;99.90;;;;;;5051910;28;20049;-87
2023/08/18 01:15:48;;;;;;;4.13;3.00;;;16.40;99.90;;;;;;5034098;28;20068;-87
2023/08/18 01:18:14;;;;;;;3.78;2.55;;;16.40;99.90;;;;;;5038659;28;20037;-87
2023/08/18 01:20:43;;;;;;;4.53;2.60;;;16.40;99.90;;;;;;5036053;28;20492;-87
2023/08/18 01:23:09;;;;;;;3.80;2.90;;;16.40;99.90;;;;;;5027738;28;20083;-87
2023/08/18 01:25:35;;;;;;;7.10;3.17;;;16.40;99.90;;;;;;5053928;28;20469;-88
2023/08/18 01:28:06;;;;;;;3.30;2.75;;;16.40;99.90;;;;;;5052776;28;20048;-89
2023/08/18 01:30:46;;;;;;;6.28;3.33;;;16.40;99.90;;;;;;5036290;28;20106;-87
2023/08/18 01:33:31;;;;;;;4.53;3.13;;;16.40;99.90;;;;;;5040181;28;20044;-88
2023/08/18 01:36:03;;;;;;;4.95;3.13;;;16.40;99.90;;;;;;5055846;28;20045;-87
2023/08/18 01:38:31;;;;;;;5.05;3.03;;;16.30;99.90;;;;;;5050550;28;20116;-88
2023/08/18 01:40:58;;;;;;;3.58;2.90;;;16.30;99.90;;;;;;5048457;28;20439;-88
2023/08/18 01:43:24;;;;;;;3.72;3.10;;;16.30;99.90;;;;;;5036646;28;20043;-87
2023/08/18 01:45:49;;;;;;;4.43;3.20;;;16.30;99.90;;;;;;5063149;28;20049;-87
2023/08/18 01:48:15;;;;;;;5.05;2.92;;;16.30;99.90;;;;;;5042641;28;20068;-88
2023/08/18 01:50:43;;;;;;;4.35;3.00;;;16.30;99.90;;;;;;5030308;28;20132;-87
2023/08/18 01:53:09;;;;;;;3.90;3.35;;;16.30;99.90;;;;;;5004220;28;20025;-88
2023/08/18 01:55:35;;;;;;;4.20;3.00;;;16.30;99.90;;;;;;5044173;28;20124;-91
2023/08/18 01:58:01;;;;;;;4.05;2.90;;;16.30;99.90;;;;;;5035883;28;20037;-92
2023/08/18 02:00:26;;;;;;;4.18;3.70;;;16.30;99.90;;;;;;5036127;28;20055;-87
2023/08/18 02:02:52;;;;;;;3.83;2.88;;;16.30;99.90;;;;;;5022057;28;20052;-88
2023/08/18 02:05:18;;;;;;;5.45;3.15;;;16.30;99.90;;;;;;5051909;28;20099;-87
2023/08/18 02:07:43;;;;;;;8.65;3.20;;;16.30;99.90;;;;;;5034888;28;20056;-88
2023/08/18 02:10:09;;;;;;;3.67;3.25;;;16.30;99.90;;;;;;5036712;28;20094;-88
2023/08/18 02:12:35;;;;;;;5.00;3.40;;;16.30;99.90;;;;;;5035687;28;20069;-88
2023/08/18 02:15:01;;;;;;;3.72;3.30;;;16.20;99.90;;;;;;5037114;28;20111;-89
2023/08/18 02:17:29;;;;;;;7.90;3.60;;;16.20;99.90;;;;;;5047480;28;20453;-86
2023/08/18 02:19:58;;;;;;;4.55;3.60;;;16.20;99.90;;;;;;5038119;28;20036;-86
2023/08/18 02:22:28;;;;;;;4.38;2.97;;;16.20;99.90;;;;;;5035951;28;20051;-89
2023/08/18 02:24:54;;;;;;;4.32;3.10;;;16.20;99.90;;;;;;5035423;28;20041;-87
2023/08/18 02:27:20;;;;;;;4.13;3.35;;;16.10;99.90;;;;;;5034427;28;20492;-88
2023/08/18 02:29:45;;;;;;;4.93;3.58;;;16.10;99.90;;;;;;5035308;28;20040;-86
2023/08/18 02:32:11;;;;;;;5.57;3.75;;;16.20;99.90;;;;;;5035164;28;20080;-89
2023/08/18 02:34:37;;;;;;;6.20;3.88;;;16.10;99.90;;;;;;5018463;28;20037;-88
2023/08/18 02:37:03;;;;;;;3.53;3.22;;;16.20;99.90;;;;;;5045397;28;20041;-88
2023/08/18 02:39:28;;;;;;;6.53;4.00;;;16.20;99.90;;;;;;5040614;28;20040;-88
2023/08/18 02:41:55;;;;;;;5.30;4.22;;;16.20;99.90;;;;;;5040655;28;20068;-89
2023/08/18 02:44:25;;;;;;;8.70;4.57;;;16.20;99.90;;;;;;5043279;28;20111;-88
2023/08/18 02:46:51;;;;;;;6.22;4.22;;;16.20;99.90;;;;;;5034324;28;20051;-92
2023/08/18 02:49:16;;;;;;;6.50;4.13;;;16.20;99.90;;;;;;5035365;28;20048;-87
2023/08/18 02:51:42;;;;;;;8.35;4.32;;;16.20;99.90;;;;;;5040172;28;20430;-87
2023/08/18 02:54:08;;;;;;;7.28;4.38;;;16.20;99.90;;;;;;5028188;28;20060;-88
2023/08/18 02:56:34;;;;;;;8.02;4.65;;;16.20;99.90;;;;;;5035287;28;20045;-91
2023/08/18 02:59:00;;;;;;;5.53;4.30;;;16.20;99.90;;;;;;5036107;28;20037;-88
2023/08/18 03:01:25;;;;;;;5.90;4.00;;;16.20;99.90;;;;;;5040685;28;20045;-88
2023/08/18 03:03:51;;;;;;;6.65;4.40;;;16.20;99.90;;;;;;5055779;28;20443;-89
2023/08/18 03:06:17;;;;;;;6.82;4.60;;;16.20;99.90;;;;;;5049029;28;20032;-89
2023/08/18 03:08:43;;;;;;;5.82;4.93;;;16.20;99.90;;;;;;5048383;28;20075;-91
2023/08/18 03:11:09;;;;;;;6.55;4.72;;;16.20;99.90;;;;;;5040447;28;20125;-91
2023/08/18 03:13:34;;;;;;;6.18;4.90;;;16.20;99.90;;;;;;5025651;28;20042;-87
2023/08/18 03:16:00;;;;;;;6.30;4.88;;;16.10;99.90;;;;;;5030105;28;20037;-87
2023/08/18 03:18:26;;;;;;;7.53;5.13;;;16.20;99.90;;;;;;5067257;28;20024;-87
2023/08/18 03:21:01;;;;;;;8.95;5.05;;;16.20;99.90;;;;;;5051346;28;20392;-86
2023/08/18 03:23:27;;;;;;;5.72;5.05;;;16.10;99.90;;;;;;5042716;28;20050;-89
2023/08/18 03:26:01;;;;;;;8.27;5.45;;;16.20;99.90;;;;;;5027767;28;20502;-88
2023/08/18 03:28:31;;;;;;;7.13;5.13;;;16.20;99.90;;;;;;5034782;28;20045;-89
2023/08/18 03:30:59;;;;;;;8.13;4.90;;;16.10;99.90;;;;;;5029108;28;20037;-88
2023/08/18 03:33:26;;;;;;;5.95;5.22;;;16.10;99.90;;;;;;5050396;28;20107;-87
2023/08/18 03:35:51;;;;;;;6.68;5.43;;;16.10;99.90;;;;;;5061004;28;20511;-90
2023/08/18 03:38:17;;;;;;;6.85;4.85;;;16.20;99.90;;;;;;5034493;28;20029;-88
2023/08/18 03:40:43;;;;;;;5.95;4.93;;;16.10;99.90;;;;;;5040249;28;20044;-87
2023/08/18 03:43:09;;;;;;;8.10;5.00;;;16.20;99.90;;;;;;5040050;28;20039;-88
2023/08/18 03:45:35;;;;;;;8.38;5.10;;;16.10;99.90;;;;;;5055770;28;20517;-90
2023/08/18 03:48:01;;;;;;;5.45;4.78;;;16.20;99.90;;;;;;5038368;28;20044;-89
2023/08/18 03:50:26;;;;;;;6.03;5.43;;;16.20;99.90;;;;;;5054258;28;20053;-90
2023/08/18 03:52:52;;;;;;;8.15;5.32;;;16.20;99.90;;;;;;5042515;28;20044;-90
2023/08/18 03:55:18;;;;;;;7.47;5.03;;;16.10;99.90;;;;;;5063726;28;20082;-87
2023/08/18 03:57:47;;;;;;;7.35;5.10;;;16.20;99.90;;;;;;5038592;28;20078;-88
2023/08/18 04:00:13;;;;;;;8.95;5.30;;;16.10;99.90;;;;;;5037286;28;20045;-91
2023/08/18 04:02:39;;;;;;;7.10;5.15;;;16.20;99.90;;;;;;5037998;28;20480;-89
2023/08/18 04:05:05;;;;;;;9.23;6.18;;;16.20;99.90;;;;;;5055266;28;20066;-87
2023/08/18 04:07:31;;;;;;;6.45;5.50;;;16.10;99.90;;;;;;5053619;28;20084;-89
2023/08/18 04:09:57;;;;;;;11.48;5.55;;;16.20;99.90;;;;;;5047648;28;20102;-88
2023/08/18 04:12:23;;;;;;;8.40;6.30;;;16.20;99.90;;;;;;5053873;28;20049;-87
2023/08/18 04:14:49;;;;;;;7.03;5.65;;;16.20;99.90;;;;;;5053861;28;20057;-87
2023/08/18 04:17:15;;;;;;;8.18;5.78;;;16.20;99.90;;;;;;5036377;28;20033;-87
2023/08/18 04:19:40;;;;;;;7.43;5.90;;;16.20;99.90;;;;;;5032555;28;20044;-88
2023/08/18 04:22:06;;;;;;;8.00;5.70;;;16.20;99.90;;;;;;5036652;28;20094;-87
2023/08/18 04:24:32;;;;;;;9.65;6.22;;;16.20;99.90;;;;;;5034874;28;20435;-89
2023/08/18 04:26:59;;;;;;;7.88;6.18;;;16.20;99.90;;;;;;5037220;28;20037;-88
2023/08/18 04:29:26;;;;;;;7.50;5.78;;;16.20;99.90;;;;;;5050640;28;20064;-87
2023/08/18 04:31:52;;;;;;;10.60;6.70;;;16.10;99.90;;;;;;5052928;28;20060;-88
2023/08/18 04:34:18;;;;;;;9.82;6.40;;;16.20;99.90;;;;;;5034055;28;20045;-90
2023/08/18 04:36:44;;;;;;;9.20;6.78;;;16.20;99.90;;;;;;5044593;28;20044;-86
2023/08/18 04:39:13;;;;;;;7.30;6.30;;;16.20;99.90;;;;;;5032563;28;20034;-87
2023/08/18 04:41:39;;;;;;;9.27;7.07;;;16.20;99.90;;;;;;5016163;28;20088;-87
2023/08/18 04:44:05;;;;;;;9.55;7.43;;;16.20;99.90;;;;;;5059582;28;20072;-88
2023/08/18 04:46:31;;;;;;;10.65;7.18;;;16.10;99.90;;;;;;5036805;28;20079;-86
2023/08/18 04:48:57;;;;;;;9.48;7.68;;;16.10;99.90;;;;;;5041081;28;20041;-89
2023/08/18 04:51:33;;;;;;;11.38;8.07;;;16.10;99.90;;;;;;5033545;28;20313;-87
2023/08/18 04:54:24;;;;;;;13.88;8.38;;;16.10;99.90;;;;;;5057590;28;20045;-88
2023/08/18 04:56:57;;;;;;;14.53;9.20;;;16.10;99.90;;;;;;5037660;28;20048;-86
2023/08/18 04:59:23;;;;;;;12.00;8.73;;;16.10;99.90;;;;;;5061181;28;20115;-88
2023/08/18 05:01:51;;;;;;;13.38;8.85;;;16.00;99.90;;;;;;5056138;28;20127;-88
2023/08/18 05:04:17;;;;;;;13.35;8.93;;;16.10;99.90;;;;;;5053178;28;20056;-87
2023/08/18 05:06:43;;;;;;;17.58;9.30;;;16.10;99.90;;;;;;5033847;28;20102;-87
2023/08/18 05:09:09;;;;;;;12.68;8.95;;;16.10;99.90;;;;;;5035653;28;20639;-88
2023/08/18 05:11:35;;;;;;;13.75;8.90;;;16.10;99.90;;;;;;5039808;28;20048;-87
2023/08/18 05:14:01;;;;;;;11.95;9.00;;;16.10;99.90;;;;;;5033711;28;20124;-85
2023/08/18 05:16:26;;;;;;;14.95;9.32;;;16.10;99.90;;;;;;5056650;28;20139;-84
2023/08/18 05:18:52;;;;;;;14.63;9.60;;;16.10;99.90;;;;;;5049359;28;20047;-84
2023/08/18 05:21:18;;;;;;;14.32;9.35;;;16.10;99.90;;;;;;5035813;28;20584;-84
2023/08/18 05:23:44;;;;;;;14.57;10.00;;;16.10;99.90;;;;;;5052769;28;20083;-83
2023/08/18 05:26:09;;;;;;;14.45;9.02;;;16.10;99.90;;;;;;5041405;28;20040;-84
2023/08/18 05:28:35;;;;;;;11.13;9.43;;;16.10;99.90;;;;;;5046013;28;20041;-83
2023/08/18 05:31:01;;;;;;;13.07;9.40;;;16.10;99.90;;;;;;5052084;28;20037;-83
2023/08/18 05:33:27;;;;;;;14.40;9.90;;;16.10;99.90;;;;;;5037263;28;20528;-84
2023/08/18 05:35:57;;;;;;;14.65;10.23;;;16.10;99.90;;;;;;5063581;28;20047;-83
2023/08/18 05:38:23;;;;;;;16.95;9.98;;;16.10;99.90;;;;;;5068465;28;20037;-83
2023/08/18 05:40:49;;;;;;;16.27;10.07;;;16.10;99.90;;;;;;5018718;28;20556;-83
2023/08/18 05:43:16;;;;;;;18.55;10.43;;;16.10;99.90;;;;;;5029993;28;20041;-83
2023/08/18 05:45:46;;;;;;;16.15;10.07;;;16.10;99.90;;;;;;5062175;28;20036;-83
2023/08/18 05:48:13;;;;;;;14.05;10.13;;;16.10;99.90;;;;;;5039205;28;20617;-83
2023/08/18 05:50:39;;;;;;;15.68;10.40;;;16.10;99.90;;;;;;5044331;28;20102;-83
2023/08/18 05:53:05;;;;;;;15.23;11.15;;;16.10;99.90;;;;;;5035020;28;20040;-84
2023/08/18 05:55:32;;;;;;;13.07;10.07;;;16.10;99.90;;;;;;5051708;28;20045;-86
2023/08/18 05:58:00;;;;;;;13.55;10.43;;;16.20;99.90;;;;;;5036618;28;20045;-85
2023/08/18 06:00:26;;;;;;;12.20;9.93;;;16.10;99.90;;;;;;5061760;28;20036;-84
2023/08/18 06:02:54;;;;;;;15.98;11.50;;;16.20;99.90;;;;;;5070881;28;20053;-84
2023/08/18 06:05:19;;;;;;;18.50;11.35;;;16.20;99.90;;;;;;5071409;28;20079;-87
2023/08/18 06:07:45;;;;;;;17.60;10.60;;;16.20;99.90;;;;;;5032725;28;20060;-84
2023/08/18 06:10:11;;;;;;;13.93;10.30;;;16.20;99.90;;;;;;5054216;28;20044;-85
2023/08/18 06:12:38;;;;;;;13.98;10.07;;;16.30;99.90;;;;;;5038828;28;20044;-84
2023/08/18 06:15:05;;;;;;;18.75;10.50;;;16.30;99.90;;;;;;5049598;28;20107;-84
2023/08/18 06:17:34;;;;;;;14.55;9.82;;;16.30;99.90;;;;;;5046515;28;20037;-86
2023/08/18 06:20:12;;;;;;;14.30;9.50;;;16.40;99.90;;;;;;5051537;28;20045;-88
2023/08/18 06:22:44;;;;;;;13.02;9.82;;;16.40;99.90;;;;;;5040142;28;20094;-86
2023/08/18 06:25:16;;;;;;;15.45;10.05;;;16.40;99.90;;;;;;5047918;28;20044;-85
2023/08/18 06:27:47;;;;;;;18.00;11.52;;;16.40;99.90;;;;;;5038894;28;20453;-86
2023/08/18 06:30:15;;;;;;;10.95;9.55;;;16.40;99.90;;;;;;5049118;28;20040;-85
2023/08/18 06:32:43;;;;;;;12.70;10.13;;;16.50;99.90;;;;;;5050908;28;20444;-86
2023/08/18 06:35:09;;;;;;;14.73;9.88;;;16.50;99.90;;;;;;5030949;28;20045;-85
2023/08/18 06:37:35;;;;;;;15.02;10.02;;;16.50;99.90;;;;;;5049758;28;20033;-85
2023/08/18 06:40:01;;;;;;;15.82;10.13;;;16.60;99.90;;;;;;5034070;28;20382;-86
2023/08/18 06:42:27;;;;;;;15.88;10.52;;;16.60;99.90;;;;;;5036511;28;20072;-86
2023/08/18 06:44:52;;;;;;;16.08;10.30;;;16.60;99.90;;;;;;5039670;28;20149;-85
2023/08/18 06:47:18;;;;;;;15.00;9.73;;;16.70;99.90;;;;;;5054108;28;20436;-86
2023/08/18 06:49:44;;;;;;;17.83;10.13;;;16.70;99.90;;;;;;5035430;28;20040;-86
2023/08/18 06:52:10;;;;;;;17.50;10.05;;;16.70;99.90;;;;;;5049298;28;20071;-87
2023/08/18 06:54:36;;;;;;;19.60;10.00;;;16.80;99.90;;;;;;5062257;28;20033;-86
2023/08/18 06:57:02;;;;;;;21.50;10.63;;;16.80;99.90;;;;;;5043901;28;20052;-86
2023/08/18 06:59:28;;;;;;;18.90;10.25;;;16.80;99.90;;;;;;5054199;28;20040;-85
2023/08/18 07:01:57;;;;;;;15.88;9.88;;;16.80;99.90;;;;;;5033515;28;20033;-87
2023/08/18 07:04:26;;;;;;;22.42;11.27;;;16.80;99.90;;;;;;5052732;28;20435;-86
2023/08/18 07:06:54;;;;;;;20.20;10.20;;;16.80;99.90;;;;;;5046446;28;20106;-86
2023/08/18 07:09:20;;;;;;;19.48;10.20;;;16.80;99.90;;;;;;5034288;28;20080;-86
2023/08/18 07:11:45;;;;;;;27.33;12.20;;;16.90;99.90;;;;;;5018203;28;20080;-86
2023/08/18 07:14:11;;;;;;;23.38;10.77;;;16.90;99.90;;;;;;5051564;28;20037;-86
2023/08/18 07:16:37;;;;;;;26.80;11.23;;;16.90;99.90;;;;;;5042195;28;20106;-87
2023/08/18 07:19:03;;;;;;;24.65;11.70;;;16.90;99.90;;;;;;5063720;28;20068;-86
2023/08/18 07:21:29;;;;;;;22.60;11.43;;;16.90;99.90;;;;;;5068997;28;20080;-87
2023/08/18 07:23:55;;;;;;;22.95;11.35;;;17.00;99.90;;;;;;5061023;28;20127;-86
2023/08/18 07:26:20;;;;;;;21.88;10.18;;;17.00;99.90;;;;;;5037721;28;20049;-86
2023/08/18 07:28:46;;;;;;;23.05;10.57;;;17.00;99.90;;;;;;5057581;28;20041;-85
2023/08/18 07:31:12;;;;;;;21.58;10.30;;;17.00;99.90;;;;;;5043822;28;20057;-86
2023/08/18 07:33:37;;;;;;;21.50;9.63;;;17.00;99.90;;;;;;5053510;28;20150;-86
2023/08/18 07:36:03;;;;;;;21.98;10.45;;;17.10;99.90;;;;;;5037486;28;20103;-85
2023/08/18 07:38:36;;;;;;;18.10;10.30;;;17.10;99.90;;;;;;5049569;28;20052;-88
2023/08/18 07:41:02;;;;;;;17.30;10.27;;;17.10;99.90;;;;;;5047831;28;20049;-85
2023/08/18 07:43:28;;;;;;;18.15;9.63;;;17.10;99.90;;;;;;5057760;28;20051;-84
2023/08/18 07:45:55;;;;;;;17.13;10.38;;;17.20;99.90;;;;;;5028294;28;20496;-85
2023/08/18 07:48:34;;;;;;;;;;;;;;;;;;;;;
2023/08/18 07:51:15;;;;;;;17.88;10.32;;;17.30;99.90;;;;;;5029571;28;20400;-86
2023/08/18 07:53:42;;;;;;;16.77;9.95;;;17.30;99.90;;;;;;5026857;28;20049;-85
2023/08/18 07:56:08;;;;;;;16.77;9.95;;;17.40;99.90;;;;;;5009794;28;20175;-86
2023/08/18 07:58:34;;;;;;;16.23;10.18;;;17.40;99.90;;;;;;5029606;28;20055;-86
2023/08/18 08:01:01;;;;;;;15.20;9.50;;;17.40;99.90;;;;;;5029156;28;20037;-85
2023/08/18 08:03:32;;;;;;;18.08;11.20;;;17.50;99.90;;;;;;5027348;28;20099;-86
2023/08/18 08:05:58;;;;;;;16.40;11.05;;;17.50;99.90;;;;;;5027028;28;20044;-85
2023/08/18 08:08:35;;;;;;;20.30;10.45;;;17.50;99.90;;;;;;5042921;28;20118;-87
2023/08/18 08:11:06;;;;;;;16.50;10.55;;;17.50;99.90;;;;;;5026400;28;20116;-84
2023/08/18 08:13:32;;;;;;;18.65;11.68;;;17.50;99.90;;;;;;5027708;28;20098;-85
2023/08/18 08:16:03;;;;;;;21.48;12.32;;;17.50;99.90;;;;;;5022712;28;20033;-86
2023/08/18 08:18:29;;;;;;;19.92;11.95;;;17.60;99.90;;;;;;5043371;28;20045;-85
2023/08/18 08:21:04;;;;;;;;;;;17.60;99.90;;;;;;5041778;28;20598;-86
2023/08/18 08:23:35;;;;;;;21.58;12.60;;;17.60;99.90;;;;;;5026095;28;19917;-85
2023/08/18 08:26:01;;;;;;;19.95;11.88;;;17.60;99.90;;;;;;5043269;28;20041;-85
2023/08/18 08:28:27;;;;;;;20.85;11.77;;;17.60;99.90;;;;;;5039593;28;20536;-85
2023/08/18 08:30:52;;;;;;;19.05;11.68;;;17.70;99.90;;;;;;5026388;28;20052;-85
2023/08/18 08:33:18;;;;;;;21.13;12.15;;;17.70;99.90;;;;;;5039509;28;20146;-83
2023/08/18 08:35:44;;;;;;;17.52;10.88;;;17.80;99.90;;;;;;5045627;28;20520;-84
2023/08/18 08:38:10;;;;;;;19.90;11.43;;;17.80;99.90;;;;;;5026741;28;20041;-85
2023/08/18 08:40:36;;;;;;;17.25;11.15;;;17.90;99.90;;;;;;5044330;28;20041;-85
2023/08/18 08:43:02;;;;;;;15.05;10.32;;;18.00;99.90;;;;;;5039603;28;20111;-85
2023/08/18 08:45:28;;;;;;;15.88;11.15;;;18.10;99.90;;;;;;5042069;28;20496;-85
2023/08/18 08:47:56;;;;;;;15.60;10.32;;;18.10;99.90;;;;;;5042389;28;20052;-85
2023/08/18 08:50:27;;;;;;;16.27;10.57;;;18.20;99.90;;;;;;5042895;28;20045;-86
2023/08/18 08:52:56;;;;;;;17.30;10.75;;;18.30;99.90;;;;;;5042911;28;20045;-86
2023/08/18 08:55:24;;;;;;;15.35;10.15;;;18.30;99.90;;;;;;5026966;28;20037;-83
2023/08/18 08:57:50;;;;;;;18.45;11.02;;;18.40;99.90;;;;;;5026910;28;20037;-85
2023/08/18 09:00:16;;;;;;;15.48;10.32;;;18.50;99.90;;;;;;5041836;28;20041;-83
2023/08/18 09:02:45;;;;;;;20.55;11.05;;;18.50;99.90;;;;;;5024276;28;20114;-82
2023/08/18 09:05:11;;;;;;;18.95;11.27;;;18.60;99.90;;;;;;5042152;28;20052;-83
2023/08/18 09:07:37;;;;;;;15.80;11.15;;;18.60;99.90;;;;;;5010326;28;20553;-85
2023/08/18 09:10:05;;;;;;;20.27;11.27;;;18.60;99.90;;;;;;5028357;28;20651;-84
2023/08/18 09:12:32;;;;;;;16.83;11.05;;;18.70;99.90;;;;;;5042907;28;20172;-85
2023/08/18 09:15:01;;;;;;;17.17;10.77;;;18.70;99.90;;;;;;5024416;28;20040;-84
2023/08/18 09:17:27;;;;;;;16.55;11.10;;;18.80;99.90;;;;;;5024856;28;20072;-84
2023/08/18 09:19:57;;;;;;;15.38;10.48;;;18.80;99.90;;;;;;5026678;28;20063;-84
2023/08/18 09:22:23;;;;;;;16.27;10.93;;;18.90;99.90;;;;;;5040891;28;20066;-84
2023/08/18 09:24:56;;;;;;;14.63;10.25;;;18.90;99.90;;;;;;5057967;28;20048;-86
2023/08/18 09:27:29;;;;;;;15.15;10.85;;;19.00;99.90;;;;;;5026708;28;20052;-85
2023/08/18 09:29:58;;;;;;;16.55;10.60;;;19.00;99.90;;;;;;5058826;28;20052;-84
2023/08/18 09:32:25;;;;;;;15.55;10.35;;;19.10;99.90;;;;;;5028401;28;20079;-83
2023/08/18 09:34:51;;;;;;;12.68;10.15;;;19.10;99.90;;;;;;5026051;28;20040;-84
2023/08/18 09:37:17;;;;;;;15.68;10.85;;;19.10;99.90;;;;;;5025324;28;20384;-84
2023/08/18 09:39:43;;;;;;;16.50;10.20;;;19.20;99.90;;;;;;5027116;28;20084;-85
2023/08/18 09:42:10;;;;;;;17.95;11.45;;;19.20;99.90;;;;;;5025639;28;20167;-84
2023/08/18 09:44:38;;;;;;;14.30;10.40;;;19.30;99.90;;;;;;5027212;28;20040;-85
2023/08/18 09:47:08;;;;;;;15.35;11.05;;;19.30;99.90;;;;;;5041541;28;20401;-85
2023/08/18 09:49:39;;;;;;;14.48;10.80;;;19.40;99.90;;;;;;5027328;28;20044;-85
2023/08/18 09:52:06;;;;;;;17.40;11.20;;;19.50;99.90;;;;;;5026289;28;20040;-84
2023/08/18 09:54:40;;;;;;;14.02;10.35;;;19.50;99.90;;;;;;5009936;28;20040;-85
2023/08/18 09:57:19;;;;;;;16.65;11.43;;;19.50;99.90;;;;;;5039828;28;20500;-87
2023/08/18 09:59:56;;;;;;;12.45;9.88;;;19.60;99.90;;;;;;5037612;28;20366;-84
2023/08/18 10:02:33;;;;;;;14.38;10.35;;;19.60;99.90;;;;;;5039378;28;20102;-85
2023/08/18 10:04:59;;;;;;;14.20;10.43;;;19.60;99.90;;;;;;5025204;28;20038;-85
2023/08/18 10:07:27;;;;;;;15.20;11.07;;;19.60;99.90;;;;;;5040163;28;20136;-86
2023/08/18 10:09:57;;;;;;;13.57;10.52;;;19.70;99.90;;;;;;5025877;28;20052;-81
2023/08/18 10:12:23;;;;;;;12.32;10.20;;;19.70;99.90;;;;;;5040579;28;20106;-84
2023/08/18 10:14:51;;;;;;;14.43;9.88;;;19.70;99.90;;;;;;5022143;28;20041;-84
2023/08/18 10:17:21;;;;;;;13.82;10.82;;;19.80;99.90;;;;;;5023171;28;20035;-85
2023/08/18 10:19:50;;;;;;;14.00;10.90;;;19.80;99.90;;;;;;5040771;28;20440;-86
2023/08/18 10:22:18;;;;;;;13.82;11.18;;;19.90;99.90;;;;;;5040958;28;20047;-85
2023/08/18 10:24:48;;;;;;;12.00;10.18;;;19.90;99.90;;;;;;5025584;28;20049;-85
2023/08/18 10:27:26;;;;;;;14.15;10.50;;;20.00;99.90;;;;;;5023493;28;20044;-85
2023/08/18 10:29:59;;;;;;;12.18;10.88;;;20.10;99.90;;;;;;5024843;28;20052;-85
2023/08/18 10:32:25;;;;;;;12.35;10.60;;;20.10;99.90;;;;;;5022122;28;20053;-85
2023/08/18 10:35:20;;;;;;;13.20;10.65;;;20.20;99.90;;;;;;5022747;28;20041;-83
2023/08/18 10:38:05;;;;;;;12.32;11.02;;;20.20;99.90;;;;;;5043696;28;20036;-85
2023/08/18 10:40:35;;;;;;;12.00;10.45;;;20.30;99.90;;;;;;5022653;28;20659;-84
2023/08/18 10:43:12;;;;;;;15.50;10.87;;;20.40;99.90;;;;;;5023267;28;20047;-84
2023/08/18 10:45:40;;;;;;;13.40;10.95;;;20.50;99.90;;;;;;5021475;28;20045;-86
2023/08/18 10:48:06;;;;;;;12.68;10.38;;;20.50;99.90;;;;;;5019358;28;20445;-84
2023/08/18 10:50:34;;;;;;;12.27;10.07;;;20.70;99.90;;;;;;5024566;28;20045;-85
2023/08/18 10:53:03;;;;;;;14.90;10.13;;;20.70;99.90;;;;;;5025622;28;20045;-84
2023/08/18 10:55:30;;;;;;;10.80;9.70;;;20.80;99.90;;;;;;5041367;28;20045;-87
2023/08/18 10:57:55;;;;;;;10.77;9.45;;;20.90;99.90;;;;;;5038783;28;20045;-85
2023/08/18 11:00:22;;;;;;;11.18;9.82;;;20.90;99.90;;;;;;5024921;28;20044;-86
2023/08/18 11:02:49;;;;;;;11.20;10.02;;;20.90;99.90;;;;;;5033173;28;20052;-86
2023/08/18 11:05:20;;;;;;;10.90;9.80;;;21.00;99.90;;;;;;5053292;28;20048;-86
2023/08/18 11:07:46;;;;;;;12.48;10.55;;;21.20;99.90;;;;;;5014374;28;20060;-86
2023/08/18 11:10:22;;;;;;;12.55;11.27;;;21.20;99.90;;;;;;5062460;28;20417;-87
2023/08/18 11:12:50;;;;;;;11.55;10.40;;;21.30;99.90;;;;;;5041280;28;20488;-85
2023/08/18 11:15:19;;;;;;;12.13;10.77;;;21.30;99.90;;;;;;5033641;28;20041;-86
2023/08/18 11:17:46;;;;;;;13.73;11.75;;;21.40;99.90;;;;;;5050624;28;20044;-87
2023/08/18 11:20:13;;;;;;;12.63;11.32;;;21.40;99.90;;;;;;5034244;28;20178;-86
2023/08/18 11:22:39;;;;;;;13.82;11.88;;;21.40;99.90;;;;;;5050621;28;20086;-86
2023/08/18 11:25:06;;;;;;;15.32;11.93;;;21.40;99.90;;;;;;5050178;28;20496;-85
2023/08/18 11:27:33;;;;;;;14.30;12.40;;;21.50;99.90;;;;;;5033710;28;20053;-86
2023/08/18 11:29:59;;;;;;;14.57;12.25;;;21.50;99.90;;;;;;5050721;28;20073;-86
2023/08/18 11:32:27;;;;;;;13.15;11.68;;;21.50;99.90;;;;;;5049974;28;20048;-86
2023/08/18 11:34:53;;;;;;;14.68;12.40;;;21.50;99.90;;;;;;5033928;28;20083;-86
2023/08/18 11:37:22;;;;;;;16.05;12.25;;;21.50;99.90;;;;;;5042730;28;20052;-86
2023/08/18 11:39:49;;;;;;;14.40;12.90;;;21.60;99.90;;;;;;5049381;28;20044;-86
2023/08/18 11:42:15;;;;;;;15.13;13.10;;;21.60;99.90;;;;;;5050683;28;20801;-85
2023/08/18 11:44:41;;;;;;;13.60;12.23;;;21.70;99.90;;;;;;5033497;28;20072;-86
2023/08/18 11:47:08;;;;;;;14.73;13.15;;;21.70;99.90;;;;;;5033723;28;20477;-88
2023/08/18 11:49:35;;;;;;;15.38;13.30;;;21.80;99.90;;;;;;5034338;28;20124;-87
2023/08/18 11:52:05;;;;;;;17.15;14.43;;;21.80;99.90;;;;;;5033213;28;20032;-87
2023/08/18 11:54:36;;;;;;;15.15;13.43;;;21.80;99.90;;;;;;5032702;28;20033;-86
2023/08/18 11:57:04;;;;;;;16.80;14.48;;;21.70;99.90;;;;;;5032613;28;20033;-87
2023/08/18 11:59:29;;;;;;;17.95;15.07;;;21.70;99.90;;;;;;5050201;28;20091;-86
2023/08/18 12:01:59;;;;;;;17.33;14.70;;;21.80;99.90;;;;;;5036202;28;20037;-87
2023/08/18 12:04:29;;;;;;;15.57;13.85;;;21.70;99.90;;;;;;5037043;28;20045;-86
2023/08/18 12:06:55;;;;;;;15.82;14.15;;;21.70;99.90;;;;;;5044939;28;20033;-86
2023/08/18 12:09:22;;;;;;;16.75;14.90;;;21.70;99.90;;;;;;5023625;28;20406;-87
2023/08/18 12:11:48;;;;;;;17.83;14.02;;;21.80;99.90;;;;;;5036821;28;20056;-88
2023/08/18 12:14:14;;;;;;;16.73;13.85;;;22.20;99.90;;;;;;5053580;28;20045;-87
2023/08/18 12:16:41;;;;;;;15.13;13.63;;;22.50;99.90;;;;;;5046229;28;20429;-88
2023/08/18 12:19:07;;;;;;;16.92;14.73;;;23.00;99.90;;;;;;5053510;28;20041;-87
2023/08/18 12:21:36;;;;;;;15.73;13.60;;;23.20;99.90;;;;;;5053524;28;20052;-86
2023/08/18 12:24:03;;;;;;;15.68;14.07;;;23.50;99.90;;;;;;5053574;28;20124;-89
2023/08/18 12:26:30;;;;;;;18.50;13.85;;;23.70;99.90;;;;;;5036682;28;20040;-89
2023/08/18 12:28:56;;;;;;;15.80;13.93;;;23.90;99.90;;;;;;5053176;28;20041;-88
2023/08/18 12:31:24;;;;;;;17.27;14.50;;;24.10;99.90;;;;;;5060195;28;20510;-88
2023/08/18 12:34:10;;;;;;;16.08;13.82;;;24.20;99.90;;;;;;5048592;28;20037;-88
2023/08/18 12:36:45;;;;;;;15.02;13.18;;;24.30;99.90;;;;;;5023767;28;20044;-87
2023/08/18 12:39:11;;;;;;;14.57;12.73;;;24.40;99.90;;;;;;5058549;28;20090;-89
2023/08/18 12:41:37;;;;;;;16.27;13.57;;;24.60;99.90;;;;;;5053366;28;20135;-88